Lavaca Bay — WDF2105 — position and weather

sailwx.info

Track history (hours):
 
Tides and Currents Weather Stations Pressure Air Temp Water Temp Dewpoint Dewpoint Depression Visibility Wind Speed Wind Dir Waves Ship Positions

Lavaca Bay

Owner: Higman Barge Lines, Inc, Orange, TX. More information available from US FCC via Universal Licensing System and Coast Guard Vessel Documentation Center.

Last reported at 2018-Feb-20 12:18 UTC. Time now 2018-Feb-22 05:29 UTC.
Position N 26°51' W 097°28'.

Length 24 m; draft 3 m.

Type: Towing. MMSI: 367424940.

Date/timePositionNaut miles runAvg speedWind from/ knotsBaromVisibWave heightAir tempDewpointWater temp
2018-Feb-20 12:18N 26°51' W 097°28'0 0.0
2018-Feb-20 11:48N 26°51' W 097°28'0 0.0
2018-Feb-20 11:19N 26°51' W 097°28'0 0.0
2018-Feb-20 11:01N 26°51' W 097°28'0 0.0
2018-Feb-20 10:15N 26°51' W 097°28'0 0.0
2018-Feb-20 09:53N 26°51' W 097°28'0 0.0
2018-Feb-20 09:28N 26°51' W 097°28'0 0.0
2018-Feb-20 08:57N 26°51' W 097°28'0 0.2
2018-Feb-20 08:29N 26°51' W 097°28'2 2.9
2018-Feb-20 07:53N 26°53' W 097°28'2 4.4
2018-Feb-20 07:26N 26°55' W 097°28'3 4.3
2018-Feb-20 06:44N 26°58' W 097°27'2 4.3
2018-Feb-20 06:22N 26°60' W 097°27'2 4.2
2018-Feb-20 05:57N 27°01' W 097°27'2 4.1
2018-Feb-20 05:27N 27°03' W 097°27'2 4.2
2018-Feb-20 04:57N 27°05' W 097°27'48 4.5
2018-Feb-19 18:20N 27°50' W 097°07'2 6.0
2018-Feb-19 18:00N 27°50' W 097°05'3 5.7
2018-Feb-19 17:26N 27°53' W 097°03'0 0.4
2018-Feb-19 17:00N 27°53' W 097°03'0 0.0
2018-Feb-19 16:30N 27°53' W 097°03'0 0.1
2018-Feb-19 15:59N 27°53' W 097°03'0 0.1
2018-Feb-19 15:31N 27°53' W 097°03'2 3.3
2018-Feb-19 14:58N 27°55' W 097°03'7 6.4
2018-Feb-19 13:49N 28°02' W 097°00'2 7.0
2018-Feb-19 13:31N 28°03' W 096°59'3 6.7
2018-Feb-19 13:00N 28°06' W 096°56'2 4.8
2018-Feb-19 12:30N 28°08' W 096°55'1 2.5
2018-Feb-19 12:00N 28°09' W 096°54'0 0.0
2018-Feb-19 11:29N 28°09' W 096°54'0 0.1
2018-Feb-19 11:00N 28°09' W 096°54'0 0.0
2018-Feb-19 10:29N 28°09' W 096°54'0 0.0
2018-Feb-19 10:00N 28°09' W 096°54'0 0.0
2018-Feb-19 09:29N 28°09' W 096°54'0 0.0
2018-Feb-19 09:00N 28°09' W 096°54'0 0.0
2018-Feb-19 08:25N 28°09' W 096°54'0 0.0
2018-Feb-19 07:59N 28°09' W 096°54'0 0.0
2018-Feb-19 07:30N 28°09' W 096°54'0 0.0
2018-Feb-19 06:59N 28°09' W 096°54'0 0.0
2018-Feb-19 06:29N 28°09' W 096°54'0 0.0
2018-Feb-19 06:00N 28°09' W 096°54'0 0.0
2018-Feb-19 05:29N 28°09' W 096°54'0 0.0
2018-Feb-19 05:00N 28°09' W 096°54'0 0.0
2018-Feb-19 04:29N 28°09' W 096°54'0 0.0
2018-Feb-19 04:00N 28°09' W 096°54'0 0.0
2018-Feb-19 03:28N 28°09' W 096°54'0 0.0
2018-Feb-19 03:00N 28°09' W 096°54'0 0.0
2018-Feb-19 02:29N 28°09' W 096°54'0 0.0
2018-Feb-19 02:00N 28°09' W 096°54'0 0.0
2018-Feb-19 01:29N 28°09' W 096°54'0 0.2
2018-Feb-19 01:00N 28°09' W 096°54'3 5.5
2018-Feb-19 00:26N 28°11' W 096°51'2 5.3
2018-Feb-19 00:00N 28°12' W 096°49'2 4.3
2018-Feb-18 23:30N 28°14' W 096°47'3 6.3
2018-Feb-18 22:58N 28°16' W 096°44'3 6.6
2018-Feb-18 22:29N 28°18' W 096°42'3 5.9
2018-Feb-18 21:58N 28°20' W 096°39'2 4.8
2018-Feb-18 21:30N 28°21' W 096°37'3 4.8
2018-Feb-18 20:59N 28°22' W 096°34'3 4.9
2018-Feb-18 20:28N 28°23' W 096°32'3 5.0
2018-Feb-18 19:51N 28°25' W 096°28'17 5.8
2018-Feb-18 16:51N 28°34' W 096°12'2 0.3
2018-Feb-18 10:10N 28°36' W 096°10'0 0.0
2018-Feb-18 09:52N 28°36' W 096°10'0 0.0
2018-Feb-18 09:30N 28°36' W 096°10'0 0.0
2018-Feb-18 09:00N 28°36' W 096°10'0 0.0
2018-Feb-18 08:28N 28°36' W 096°10'0 0.0
2018-Feb-18 07:36N 28°36' W 096°10'0 0.0
2018-Feb-18 07:11N 28°36' W 096°10'0 0.0
2018-Feb-18 06:53N 28°36' W 096°10'0 0.0
2018-Feb-18 06:30N 28°36' W 096°10'0 0.0
2018-Feb-18 06:00N 28°36' W 096°10'0 0.0
2018-Feb-18 05:31N 28°36' W 096°10'0 0.0
2018-Feb-18 04:59N 28°36' W 096°10'0 0.0
2018-Feb-18 04:30N 28°36' W 096°10'0 0.0
2018-Feb-18 03:59N 28°36' W 096°10'0 0.0
2018-Feb-18 03:30N 28°36' W 096°10'0 0.0
2018-Feb-18 02:56N 28°36' W 096°10'0 0.0
2018-Feb-18 02:21N 28°36' W 096°10'0 0.0
2018-Feb-18 01:54N 28°36' W 096°10'0 0.0
2018-Feb-18 00:12N 28°36' W 096°10'0 0.0
2018-Feb-17 23:59N 28°36' W 096°10'0 0.0
2018-Feb-17 23:30N 28°36' W 096°10'26 2.2
2018-Feb-17 11:44N 28°45' W 095°43'0 0.0
2018-Feb-17 11:21N 28°45' W 095°43'0 0.0
2018-Feb-17 10:48N 28°45' W 095°43'0 0.0
2018-Feb-17 10:30N 28°45' W 095°43'0 0.0
2018-Feb-17 08:02N 28°45' W 095°43'20 1.2
2018-Feb-16 14:26N 28°54' W 095°22'0 0.0
2018-Feb-16 13:43N 28°54' W 095°22'0 0.0
2018-Feb-16 12:26N 28°54' W 095°22'0 0.0
2018-Feb-16 12:00N 28°54' W 095°22'0 0.0
2018-Feb-16 08:40N 28°54' W 095°22'0 0.0
2018-Feb-16 08:18N 28°54' W 095°22'0 0.0
2018-Feb-16 07:56N 28°54' W 095°22'0 0.0
2018-Feb-16 07:22N 28°54' W 095°22'0 0.0
2018-Feb-16 06:59N 28°54' W 095°22'1 1.3
2018-Feb-16 06:24N 28°54' W 095°23'0 0.0
2018-Feb-16 05:49N 28°54' W 095°23'0 0.0
2018-Feb-16 05:28N 28°54' W 095°23'1 1.7
2018-Feb-16 05:00N 28°54' W 095°22'0 0.0
2018-Feb-16 04:30N 28°54' W 095°22'0 0.0
2018-Feb-16 04:00N 28°54' W 095°22'0 0.0
2018-Feb-16 03:30N 28°54' W 095°22'0 0.0
2018-Feb-16 03:01N 28°54' W 095°22'0 0.0
2018-Feb-16 02:30N 28°54' W 095°22'0 0.0
2018-Feb-16 01:54N 28°54' W 095°22'0 0.0
2018-Feb-16 01:29N 28°54' W 095°22'0 0.0
2018-Feb-16 00:57N 28°54' W 095°22'1 1.7
2018-Feb-16 00:30N 28°55' W 095°22'3 5.6
2018-Feb-15 23:57N 28°57' W 095°19'3 5.4
2018-Feb-15 23:24N 28°59' W 095°16'1 2.7
2018-Feb-15 22:58N 28°60' W 095°15'2 2.8
2018-Feb-15 22:23N 29°01' W 095°14'2 4.3
2018-Feb-15 21:55N 29°03' W 095°13'2 4.4
2018-Feb-15 21:28N 29°05' W 095°13'2 4.5
2018-Feb-15 20:54N 29°07' W 095°12'3 5.0
2018-Feb-15 20:22N 29°09' W 095°09'3 5.9
2018-Feb-15 19:54N 29°10' W 095°07'3 4.8
2018-Feb-15 19:18N 29°12' W 095°04'2 4.9
2018-Feb-15 18:56N 29°13' W 095°02'1 1.4
2018-Feb-15 18:25N 29°13' W 095°02'0 0.0
2018-Feb-15 17:59N 29°13' W 095°02'0 0.0
2018-Feb-15 17:26N 29°13' W 095°02'0 0.0
2018-Feb-15 15:34N 29°13' W 095°02'0 0.0
2018-Feb-15 15:21N 29°13' W 095°02'0 0.0
2018-Feb-15 13:33N 29°13' W 095°02'0 0.0
2018-Feb-15 12:24N 29°13' W 095°02'0 0.0
2018-Feb-15 10:59N 29°13' W 095°02'0 0.0
2018-Feb-15 10:29N 29°13' W 095°02'0 0.0
2018-Feb-15 10:00N 29°13' W 095°02'0 0.0
2018-Feb-15 09:29N 29°13' W 095°02'0 0.0
2018-Feb-15 09:00N 29°13' W 095°02'0 0.0
2018-Feb-15 08:22N 29°13' W 095°02'0 0.0
2018-Feb-15 07:59N 29°13' W 095°02'0 0.0
2018-Feb-15 07:30N 29°13' W 095°02'0 0.0
2018-Feb-15 07:01N 29°13' W 095°02'0 0.0
2018-Feb-15 06:25N 29°13' W 095°02'0 0.0
2018-Feb-15 06:00N 29°13' W 095°02'0 0.0
2018-Feb-15 05:30N 29°13' W 095°02'0 0.0
2018-Feb-15 04:58N 29°13' W 095°02'0 0.0
2018-Feb-15 04:30N 29°13' W 095°02'0 0.0
2018-Feb-15 03:56N 29°13' W 095°02'0 0.0
2018-Feb-15 03:28N 29°13' W 095°02'0 0.1
2018-Feb-15 02:58N 29°13' W 095°02'0 0.0
2018-Feb-15 02:19N 29°13' W 095°02'0 0.0
2018-Feb-15 00:42N 29°13' W 095°02'0 0.0
2018-Feb-14 23:32N 29°13' W 095°02'0 0.0
2018-Feb-14 23:27N 29°13' W 095°02'0 0.0
2018-Feb-14 22:58N 29°13' W 095°02'0 0.1
2018-Feb-14 22:26N 29°13' W 095°02'4 4.8
2018-Feb-14 21:33N 29°17' W 094°59'1 5.5
2018-Feb-14 21:25N 29°17' W 094°58'3 6.1
2018-Feb-14 20:55N 29°17' W 094°55'3 6.5
2018-Feb-14 20:30N 29°19' W 094°52'3 6.6
2018-Feb-14 19:59N 29°21' W 094°49'2 3.7
2018-Feb-14 19:28N 29°22' W 094°51'2 3.6
2018-Feb-14 18:49N 29°22' W 094°53'0 0.2
2018-Feb-14 18:24N 29°22' W 094°53'0 0.6
2018-Feb-14 18:00N 29°22' W 094°53'0 0.0
2018-Feb-14 17:30N 29°22' W 094°53'0 0.0
2018-Feb-14 16:58N 29°22' W 094°53'0 0.0
2018-Feb-14 16:30N 29°22' W 094°53'0 0.0
2018-Feb-14 16:00N 29°22' W 094°53'0 0.0
2018-Feb-14 15:30N 29°22' W 094°53'0 0.0
2018-Feb-14 15:00N 29°22' W 094°53'0 0.0
2018-Feb-14 14:30N 29°22' W 094°53'0 0.0
2018-Feb-14 13:57N 29°22' W 094°53'0 0.0
2018-Feb-14 13:30N 29°22' W 094°53'0 0.0
2018-Feb-14 13:00N 29°22' W 094°53'0 0.0
2018-Feb-14 12:31N 29°22' W 094°53'0 0.0
2018-Feb-14 12:00N 29°22' W 094°53'0 0.0
2018-Feb-14 11:14N 29°22' W 094°53'0 0.0
2018-Feb-14 10:57N 29°22' W 094°53'0 0.0
2018-Feb-14 09:38N 29°22' W 094°53'0 0.0
2018-Feb-14 06:52N 29°22' W 094°53'0 0.0
2018-Feb-14 06:30N 29°22' W 094°53'0 0.0
2018-Feb-14 04:39N 29°22' W 094°53'0 0.0
2018-Feb-14 04:27N 29°22' W 094°53'0 0.0
2018-Feb-12 16:34N 29°22' W 094°53'1 0.5
2018-Feb-12 14:33N 29°23' W 094°52'0 0.2
2018-Feb-12 14:16N 29°23' W 094°52'  
Track history (hours):
 
Tides and Currents Weather Stations Pressure Air Temp Water Temp Dewpoint Dewpoint Depression Visibility Wind Speed Wind Dir Waves Ship Positions

Lavaca Bay

Owner: Higman Barge Lines, Inc, Orange, TX. More information available from US FCC via Universal Licensing System and Coast Guard Vessel Documentation Center.

Last reported at 2018-Feb-20 12:18 UTC. Time now 2018-Feb-22 05:29 UTC.
Position N 26°51' W 097°28'.

Length 24 m; draft 3 m.

Type: Towing. MMSI: 367424940.

Date/timePositionNaut miles runAvg speedWind from/ knotsBaromVisibWave heightAir tempDewpointWater temp
2018-Feb-20 12:18N 26°51' W 097°28'0 0.0
2018-Feb-20 11:48N 26°51' W 097°28'0 0.0
2018-Feb-20 11:19N 26°51' W 097°28'0 0.0
2018-Feb-20 11:01N 26°51' W 097°28'0 0.0
2018-Feb-20 10:15N 26°51' W 097°28'0 0.0
2018-Feb-20 09:53N 26°51' W 097°28'0 0.0
2018-Feb-20 09:28N 26°51' W 097°28'0 0.0
2018-Feb-20 08:57N 26°51' W 097°28'0 0.2
2018-Feb-20 08:29N 26°51' W 097°28'2 2.9
2018-Feb-20 07:53N 26°53' W 097°28'2 4.4
2018-Feb-20 07:26N 26°55' W 097°28'3 4.3
2018-Feb-20 06:44N 26°58' W 097°27'2 4.3
2018-Feb-20 06:22N 26°60' W 097°27'2 4.2
2018-Feb-20 05:57N 27°01' W 097°27'2 4.1
2018-Feb-20 05:27N 27°03' W 097°27'2 4.2
2018-Feb-20 04:57N 27°05' W 097°27'48 4.5
2018-Feb-19 18:20N 27°50' W 097°07'2 6.0
2018-Feb-19 18:00N 27°50' W 097°05'3 5.7
2018-Feb-19 17:26N 27°53' W 097°03'0 0.4
2018-Feb-19 17:00N 27°53' W 097°03'0 0.0
2018-Feb-19 16:30N 27°53' W 097°03'0 0.1
2018-Feb-19 15:59N 27°53' W 097°03'0 0.1
2018-Feb-19 15:31N 27°53' W 097°03'2 3.3
2018-Feb-19 14:58N 27°55' W 097°03'7 6.4
2018-Feb-19 13:49N 28°02' W 097°00'2 7.0
2018-Feb-19 13:31N 28°03' W 096°59'3 6.7
2018-Feb-19 13:00N 28°06' W 096°56'2 4.8
2018-Feb-19 12:30N 28°08' W 096°55'1 2.5
2018-Feb-19 12:00N 28°09' W 096°54'0 0.0
2018-Feb-19 11:29N 28°09' W 096°54'0 0.1
2018-Feb-19 11:00N 28°09' W 096°54'0 0.0
2018-Feb-19 10:29N 28°09' W 096°54'0 0.0
2018-Feb-19 10:00N 28°09' W 096°54'0 0.0
2018-Feb-19 09:29N 28°09' W 096°54'0 0.0
2018-Feb-19 09:00N 28°09' W 096°54'0 0.0
2018-Feb-19 08:25N 28°09' W 096°54'0 0.0
2018-Feb-19 07:59N 28°09' W 096°54'0 0.0
2018-Feb-19 07:30N 28°09' W 096°54'0 0.0
2018-Feb-19 06:59N 28°09' W 096°54'0 0.0
2018-Feb-19 06:29N 28°09' W 096°54'0 0.0
2018-Feb-19 06:00N 28°09' W 096°54'0 0.0
2018-Feb-19 05:29N 28°09' W 096°54'0 0.0
2018-Feb-19 05:00N 28°09' W 096°54'0 0.0
2018-Feb-19 04:29N 28°09' W 096°54'0 0.0
2018-Feb-19 04:00N 28°09' W 096°54'0 0.0
2018-Feb-19 03:28N 28°09' W 096°54'0 0.0
2018-Feb-19 03:00N 28°09' W 096°54'0 0.0
2018-Feb-19 02:29N 28°09' W 096°54'0 0.0
2018-Feb-19 02:00N 28°09' W 096°54'0 0.0
2018-Feb-19 01:29N 28°09' W 096°54'0 0.2
2018-Feb-19 01:00N 28°09' W 096°54'3 5.5
2018-Feb-19 00:26N 28°11' W 096°51'2 5.3
2018-Feb-19 00:00N 28°12' W 096°49'2 4.3
2018-Feb-18 23:30N 28°14' W 096°47'3 6.3
2018-Feb-18 22:58N 28°16' W 096°44'3 6.6
2018-Feb-18 22:29N 28°18' W 096°42'3 5.9
2018-Feb-18 21:58N 28°20' W 096°39'2 4.8
2018-Feb-18 21:30N 28°21' W 096°37'3 4.8
2018-Feb-18 20:59N 28°22' W 096°34'3 4.9
2018-Feb-18 20:28N 28°23' W 096°32'3 5.0
2018-Feb-18 19:51N 28°25' W 096°28'17 5.8
2018-Feb-18 16:51N 28°34' W 096°12'2 0.3
2018-Feb-18 10:10N 28°36' W 096°10'0 0.0
2018-Feb-18 09:52N 28°36' W 096°10'0 0.0
2018-Feb-18 09:30N 28°36' W 096°10'0 0.0
2018-Feb-18 09:00N 28°36' W 096°10'0 0.0
2018-Feb-18 08:28N 28°36' W 096°10'0 0.0
2018-Feb-18 07:36N 28°36' W 096°10'0 0.0
2018-Feb-18 07:11N 28°36' W 096°10'0 0.0
2018-Feb-18 06:53N 28°36' W 096°10'0 0.0
2018-Feb-18 06:30N 28°36' W 096°10'0 0.0
2018-Feb-18 06:00N 28°36' W 096°10'0 0.0
2018-Feb-18 05:31N 28°36' W 096°10'0 0.0
2018-Feb-18 04:59N 28°36' W 096°10'0 0.0
2018-Feb-18 04:30N 28°36' W 096°10'0 0.0
2018-Feb-18 03:59N 28°36' W 096°10'0 0.0
2018-Feb-18 03:30N 28°36' W 096°10'0 0.0
2018-Feb-18 02:56N 28°36' W 096°10'0 0.0
2018-Feb-18 02:21N 28°36' W 096°10'0 0.0
2018-Feb-18 01:54N 28°36' W 096°10'0 0.0
2018-Feb-18 00:12N 28°36' W 096°10'0 0.0
2018-Feb-17 23:59N 28°36' W 096°10'0 0.0
2018-Feb-17 23:30N 28°36' W 096°10'26 2.2
2018-Feb-17 11:44N 28°45' W 095°43'0 0.0
2018-Feb-17 11:21N 28°45' W 095°43'0 0.0
2018-Feb-17 10:48N 28°45' W 095°43'0 0.0
2018-Feb-17 10:30N 28°45' W 095°43'0 0.0
2018-Feb-17 08:02N 28°45' W 095°43'20 1.2
2018-Feb-16 14:26N 28°54' W 095°22'0 0.0
2018-Feb-16 13:43N 28°54' W 095°22'0 0.0
2018-Feb-16 12:26N 28°54' W 095°22'0 0.0
2018-Feb-16 12:00N 28°54' W 095°22'0 0.0
2018-Feb-16 08:40N 28°54' W 095°22'0 0.0
2018-Feb-16 08:18N 28°54' W 095°22'0 0.0
2018-Feb-16 07:56N 28°54' W 095°22'0 0.0
2018-Feb-16 07:22N 28°54' W 095°22'0 0.0
2018-Feb-16 06:59N 28°54' W 095°22'1 1.3
2018-Feb-16 06:24N 28°54' W 095°23'0 0.0
2018-Feb-16 05:49N 28°54' W 095°23'0 0.0
2018-Feb-16 05:28N 28°54' W 095°23'1 1.7
2018-Feb-16 05:00N 28°54' W 095°22'0 0.0
2018-Feb-16 04:30N 28°54' W 095°22'0 0.0
2018-Feb-16 04:00N 28°54' W 095°22'0 0.0
2018-Feb-16 03:30N 28°54' W 095°22'0 0.0
2018-Feb-16 03:01N 28°54' W 095°22'0 0.0
2018-Feb-16 02:30N 28°54' W 095°22'0 0.0
2018-Feb-16 01:54N 28°54' W 095°22'0 0.0
2018-Feb-16 01:29N 28°54' W 095°22'0 0.0
2018-Feb-16 00:57N 28°54' W 095°22'1 1.7
2018-Feb-16 00:30N 28°55' W 095°22'3 5.6
2018-Feb-15 23:57N 28°57' W 095°19'3 5.4
2018-Feb-15 23:24N 28°59' W 095°16'1 2.7
2018-Feb-15 22:58N 28°60' W 095°15'2 2.8
2018-Feb-15 22:23N 29°01' W 095°14'2 4.3
2018-Feb-15 21:55N 29°03' W 095°13'2 4.4
2018-Feb-15 21:28N 29°05' W 095°13'2 4.5
2018-Feb-15 20:54N 29°07' W 095°12'3 5.0
2018-Feb-15 20:22N 29°09' W 095°09'3 5.9
2018-Feb-15 19:54N 29°10' W 095°07'3 4.8
2018-Feb-15 19:18N 29°12' W 095°04'2 4.9
2018-Feb-15 18:56N 29°13' W 095°02'1 1.4
2018-Feb-15 18:25N 29°13' W 095°02'0 0.0
2018-Feb-15 17:59N 29°13' W 095°02'0 0.0
2018-Feb-15 17:26N 29°13' W 095°02'0 0.0
2018-Feb-15 15:34N 29°13' W 095°02'0 0.0
2018-Feb-15 15:21N 29°13' W 095°02'0 0.0
2018-Feb-15 13:33N 29°13' W 095°02'0 0.0
2018-Feb-15 12:24N 29°13' W 095°02'0 0.0
2018-Feb-15 10:59N 29°13' W 095°02'0 0.0
2018-Feb-15 10:29N 29°13' W 095°02'0 0.0
2018-Feb-15 10:00N 29°13' W 095°02'0 0.0
2018-Feb-15 09:29N 29°13' W 095°02'0 0.0
2018-Feb-15 09:00N 29°13' W 095°02'0 0.0
2018-Feb-15 08:22N 29°13' W 095°02'0 0.0
2018-Feb-15 07:59N 29°13' W 095°02'0 0.0
2018-Feb-15 07:30N 29°13' W 095°02'0 0.0
2018-Feb-15 07:01N 29°13' W 095°02'0 0.0
2018-Feb-15 06:25N 29°13' W 095°02'0 0.0
2018-Feb-15 06:00N 29°13' W 095°02'0 0.0
2018-Feb-15 05:30N 29°13' W 095°02'0 0.0
2018-Feb-15 04:58N 29°13' W 095°02'0 0.0
2018-Feb-15 04:30N 29°13' W 095°02'0 0.0
2018-Feb-15 03:56N 29°13' W 095°02'0 0.0
2018-Feb-15 03:28N 29°13' W 095°02'0 0.1
2018-Feb-15 02:58N 29°13' W 095°02'0 0.0
2018-Feb-15 02:19N 29°13' W 095°02'0 0.0
2018-Feb-15 00:42N 29°13' W 095°02'0 0.0
2018-Feb-14 23:32N 29°13' W 095°02'0 0.0
2018-Feb-14 23:27N 29°13' W 095°02'0 0.0
2018-Feb-14 22:58N 29°13' W 095°02'0 0.1
2018-Feb-14 22:26N 29°13' W 095°02'4 4.8
2018-Feb-14 21:33N 29°17' W 094°59'1 5.5
2018-Feb-14 21:25N 29°17' W 094°58'3 6.1
2018-Feb-14 20:55N 29°17' W 094°55'3 6.5
2018-Feb-14 20:30N 29°19' W 094°52'3 6.6
2018-Feb-14 19:59N 29°21' W 094°49'2 3.7
2018-Feb-14 19:28N 29°22' W 094°51'2 3.6
2018-Feb-14 18:49N 29°22' W 094°53'0 0.2
2018-Feb-14 18:24N 29°22' W 094°53'0 0.6
2018-Feb-14 18:00N 29°22' W 094°53'0 0.0
2018-Feb-14 17:30N 29°22' W 094°53'0 0.0
2018-Feb-14 16:58N 29°22' W 094°53'0 0.0
2018-Feb-14 16:30N 29°22' W 094°53'0 0.0
2018-Feb-14 16:00N 29°22' W 094°53'0 0.0
2018-Feb-14 15:30N 29°22' W 094°53'0 0.0
2018-Feb-14 15:00N 29°22' W 094°53'0 0.0
2018-Feb-14 14:30N 29°22' W 094°53'0 0.0
2018-Feb-14 13:57N 29°22' W 094°53'0 0.0
2018-Feb-14 13:30N 29°22' W 094°53'0 0.0
2018-Feb-14 13:00N 29°22' W 094°53'0 0.0
2018-Feb-14 12:31N 29°22' W 094°53'0 0.0
2018-Feb-14 12:00N 29°22' W 094°53'0 0.0
2018-Feb-14 11:14N 29°22' W 094°53'0 0.0
2018-Feb-14 10:57N 29°22' W 094°53'0 0.0
2018-Feb-14 09:38N 29°22' W 094°53'0 0.0
2018-Feb-14 06:52N 29°22' W 094°53'0 0.0
2018-Feb-14 06:30N 29°22' W 094°53'0 0.0
2018-Feb-14 04:39N 29°22' W 094°53'0 0.0
2018-Feb-14 04:27N 29°22' W 094°53'0 0.0
2018-Feb-12 16:34N 29°22' W 094°53'1 0.5
2018-Feb-12 14:33N 29°23' W 094°52'0 0.2
2018-Feb-12 14:16N 29°23' W 094°52'  

Dump ship's entire track history